Time;durP1;ratioP1;P1;durP2;ratioP2;P2;SDS_P1;SDS_P2;PMS_P1;PMS_P2;Temp;Humidity;BMP_temperature;BMP_pressure;BME280_temperature;BME280_humidity;BME280_pressure;Samples;Min_cycle;Max_cycle;Signal;HPM_P1;HPM_P2
2022/08/08 00:01:15;;;;;;;10.90;6.80;;;;;;;13.30;100.00;164043.31;5018843;28;20060;-58
2022/08/08 00:04:14;;;;;;;12.18;9.32;;;;;;;13.24;100.00;164027.09;5026480;28;20017;-58
2022/08/08 00:06:54;;;;;;;;;;;;;;;13.16;100.00;164006.84;5031513;28;20068;-58
2022/08/08 00:09:24;;;;;;;7.20;6.55;;;;;;;13.10;100.00;163990.63;5030308;28;20296;-58
2022/08/08 00:12:05;;;;;;;10.38;8.30;;;;;;;13.04;100.00;163973.03;5032021;28;20473;-58
2022/08/08 00:14:33;;;;;;;7.70;6.93;;;;;;;12.98;100.00;163958.16;5029516;28;20045;-58
2022/08/08 00:17:12;;;;;;;10.77;9.30;;;;;;;12.94;100.00;163948.69;5027112;28;20073;-58
2022/08/08 00:19:49;;;;;;;11.27;8.05;;;;;;;12.89;100.00;163935.19;5010838;28;20052;-59
2022/08/08 00:22:23;;;;;;;11.13;7.60;;;;;;;12.84;100.00;163923.03;5019436;28;20381;-58
2022/08/08 00:24:52;;;;;;;11.40;9.18;;;;;;;12.81;100.00;163913.56;5030213;28;20095;-58
2022/08/08 00:27:19;;;;;;;11.50;7.55;;;;;;;12.73;100.00;163891.94;5030717;28;20057;-58
2022/08/08 00:29:56;;;;;;;11.63;9.32;;;;;;;12.64;100.00;163870.28;5029796;28;20104;-58
2022/08/08 00:32:46;;;;;;;13.40;9.52;;;;;;;12.57;100.00;163851.38;5031383;28;20029;-59
2022/08/08 00:35:40;;;;;;;14.43;8.70;;;;;;;12.50;100.00;163833.84;5030591;28;20033;-58
2022/08/08 00:38:27;;;;;;;10.23;9.20;;;;;;;12.47;100.00;163824.38;5013507;28;20026;-58
2022/08/08 00:41:34;;;;;;;10.20;9.27;;;;;;;12.43;100.00;163813.53;5010723;28;20505;-58
2022/08/08 00:44:12;;;;;;;10.10;9.10;;;;;;;12.33;100.00;163789.22;5012281;28;20034;-59
2022/08/08 00:47:18;;;;;;;11.50;10.35;;;;;;;12.30;100.00;163781.13;5009932;28;20125;-58
2022/08/08 00:49:46;;;;;;;12.18;8.57;;;;;;;12.21;100.00;163756.78;5010525;28;20022;-58
2022/08/08 00:52:33;;;;;;;10.15;9.07;;;;;;;12.10;100.00;163727.09;5011986;28;20388;-59
2022/08/08 00:55:25;;;;;;;10.48;9.38;;;;;;;12.08;100.00;163723.00;5012135;28;20443;-58
2022/08/08 00:58:06;;;;;;;11.00;9.48;;;;;;;12.03;100.00;163710.84;5021141;28;20046;-58
2022/08/08 01:00:48;;;;;;;16.85;10.88;;;;;;;12.00;100.00;163702.75;5009753;28;20095;-58
2022/08/08 01:03:34;;;;;;;16.30;9.85;;;;;;;11.97;100.00;163694.63;5011535;28;20041;-57
2022/08/08 01:06:15;;;;;;;12.15;9.40;;;;;;;11.87;100.00;163667.59;5010120;28;20213;-59
2022/08/08 01:09:16;;;;;;;13.23;10.45;;;;;;;11.73;100.00;163632.44;5011311;28;20057;-60
2022/08/08 01:12:15;;;;;;;11.13;10.02;;;;;;;11.59;100.00;163596.00;5012140;28;20129;-59
2022/08/08 01:15:14;;;;;;;13.80;9.75;;;;;;;11.53;100.00;163578.41;5011173;28;20033;-59
2022/08/08 01:17:42;;;;;;;14.32;10.82;;;;;;;11.45;100.00;163558.19;5018773;28;20081;-60
2022/08/08 01:20:26;;;;;;;12.45;10.98;;;;;;;11.43;100.00;163554.09;5029801;28;20650;-60
2022/08/08 01:23:26;;;;;;;18.83;12.30;;;;;;;11.48;100.00;163564.94;5030114;28;20029;-60
2022/08/08 01:26:04;;;;;;;12.55;11.35;;;;;;;11.48;100.00;163564.94;5029086;28;20072;-60
2022/08/08 01:29:06;;;;;;;13.75;12.23;;;;;;;11.49;100.00;163568.97;5030141;28;20045;-59
2022/08/08 01:31:58;;;;;;;13.73;11.70;;;;;;;11.51;100.00;163574.38;5029199;28;20037;-59
2022/08/08 01:35:01;;;;;;;12.35;10.63;;;;;;;11.50;100.00;163570.34;5030692;28;20041;-60
2022/08/08 01:38:06;;;;;;;12.07;10.73;;;;;;;11.50;100.00;163570.34;5028809;28;20490;-60
2022/08/08 01:41:04;;;;;;;15.30;12.35;;;;;;;11.47;100.00;163562.22;5012910;28;20029;-60
2022/08/08 01:43:48;;;;;;;11.77;10.68;;;;;;;11.43;100.00;163552.78;5030807;28;20030;-59
2022/08/08 01:46:45;;;;;;;18.80;12.65;;;;;;;11.41;100.00;163547.34;5028456;28;20416;-59
2022/08/08 01:49:47;;;;;;;15.02;9.55;;;;;;;11.35;100.00;163532.53;5011236;28;20116;-60
2022/08/08 01:52:43;;;;;;;12.73;9.50;;;;;;;11.31;100.00;163520.38;5021639;28;20130;-60
2022/08/08 01:55:16;;;;;;;12.57;11.38;;;;;;;11.23;100.00;163500.09;5019690;28;20041;-60
2022/08/08 01:57:44;;;;;;;13.77;12.32;;;;;;;11.17;100.00;163483.91;5011123;28;20032;-59
2022/08/08 02:00:25;;;;;;;13.63;11.97;;;;;;;11.16;100.00;163481.19;5009481;28;20110;-60
2022/08/08 02:03:24;;;;;;;12.80;11.05;;;;;;;11.09;100.00;163465.00;5010889;28;20523;-59
2022/08/08 02:06:21;;;;;;;17.63;9.80;;;;;;;11.04;100.00;163451.50;5009528;28;20046;-60
2022/08/08 02:08:56;;;;;;;14.55;12.18;;;;;;;11.07;100.00;163459.59;4984805;28;20052;-60
2022/08/08 02:11:38;;;;;;;62.85;15.57;;;;;;;11.02;100.00;163446.09;5028341;28;20038;-60
2022/08/08 02:14:23;;;;;;;19.20;12.57;;;;;;;11.04;100.00;163451.50;5030501;28;20029;-60
2022/08/08 02:17:12;;;;;;;14.07;12.18;;;;;;;11.00;100.00;163439.34;5028382;28;20040;-59
2022/08/08 02:19:55;;;;;;;11.43;10.32;;;;;;;10.99;100.00;163437.97;5029605;28;20041;-59
2022/08/08 02:22:44;;;;;;;14.13;11.52;;;;;;;10.94;100.00;163425.88;5027612;28;20052;-58
2022/08/08 02:25:20;;;;;;;17.55;12.00;;;;;;;10.91;100.00;163416.38;5029162;28;20108;-58
2022/08/08 02:28:07;;;;;;;13.15;11.75;;;;;;;10.90;100.00;163415.03;5030431;28;20057;-58
2022/08/08 02:31:15;;;;;;;12.90;11.70;;;;;;;10.94;100.00;163424.50;5028620;28;20041;-59
2022/08/08 02:34:03;;;;;;;9.00;8.23;;;;;;;10.96;100.00;163429.91;5010546;28;20089;-59
2022/08/08 02:36:51;;;;;;;16.10;14.48;;;;;;;11.00;100.00;163440.69;5015974;28;20092;-59
2022/08/08 02:39:33;;;;;;;7.97;5.82;;;;;;;11.01;100.00;163443.38;5028774;28;20108;-58
2022/08/08 02:42:23;;;;;;;9.50;8.63;;;;;;;10.98;100.00;163435.31;5033468;28;20029;-57
2022/08/08 02:45:16;;;;;;;12.50;11.20;;;;;;;10.89;100.00;163412.34;5032311;28;20524;-58
2022/08/08 02:48:06;;;;;;;10.23;9.25;;;;;;;10.79;100.00;163386.69;5028600;28;20040;-58
2022/08/08 02:51:14;;;;;;;18.27;11.88;;;;;;;10.76;100.00;163378.56;5024022;28;20061;-58
2022/08/08 02:53:58;;;;;;;;;;;;;;;10.75;100.00;163375.91;5013842;28;20030;-58
2022/08/08 02:56:46;;;;;;;14.50;12.02;;;;;;;10.78;100.00;163384.00;5012450;28;19984;-59
2022/08/08 02:59:43;;;;;;;14.00;10.35;;;;;;;10.78;100.00;163384.00;5012302;28;20033;-59
2022/08/08 03:02:51;;;;;;;15.48;11.77;;;;;;;10.78;100.00;163384.00;5013700;28;20021;-59
2022/08/08 03:05:23;;;;;;;18.33;14.60;;;;;;;10.80;100.00;163388.03;5027016;28;20037;-59
2022/08/08 03:08:32;;;;;;;16.23;14.45;;;;;;;10.88;100.00;163408.28;5033660;28;20033;-59
2022/08/08 03:11:17;;;;;;;17.77;15.65;;;;;;;10.93;100.00;163421.78;5032024;28;20544;-59
2022/08/08 03:14:24;;;;;;;13.73;11.63;;;;;;;10.97;100.00;163431.22;5032938;28;20051;-59
2022/08/08 03:17:09;;;;;;;19.73;14.03;;;;;;;10.90;100.00;163413.72;5026974;28;20103;-59
2022/08/08 03:20:05;;;;;;;16.75;14.30;;;;;;;10.91;100.00;163416.38;5005868;28;20888;-59
2022/08/08 03:22:33;;;;;;;18.67;13.02;;;;;;;10.92;100.00;163419.06;5032648;28;20063;-59
2022/08/08 03:25:04;;;;;;;20.52;15.93;;;;;;;10.93;100.00;163421.78;5031858;28;20033;-59
2022/08/08 03:27:44;;;;;;;19.02;13.38;;;;;;;10.94;100.00;163424.50;5023994;28;20050;-60
2022/08/08 03:30:12;;;;;;;16.08;13.45;;;;;;;10.95;100.00;163427.19;5011445;28;20046;-60
2022/08/08 03:35:22;;;;;;;12.13;9.02;;;;;;;10.92;100.00;163419.06;5011649;28;20049;-59
2022/08/08 03:37:48;;;;;;;9.27;8.38;;;;;;;10.83;100.00;163394.81;5012803;28;20041;-58
2022/08/08 03:40:14;;;;;;;15.60;14.10;;;;;;;10.76;100.00;163378.56;5011776;28;20053;-59
2022/08/08 03:42:40;;;;;;;18.25;15.68;;;;;;;10.77;100.00;163381.28;5019862;28;20014;-58
2022/08/08 03:45:17;;;;;;;28.92;11.00;;;;;;;10.75;100.00;163375.91;5030232;28;20044;-60
2022/08/08 03:47:44;;;;;;;9.30;8.40;;;;;;;10.66;100.00;163350.22;5032420;28;20123;-60
2022/08/08 03:50:19;;;;;;;10.57;9.48;;;;;;;10.47;100.00;163303.00;5031326;28;20040;-60
2022/08/08 03:52:44;;;;;;;12.35;10.95;;;;;;;10.40;100.00;163284.09;5032205;28;20033;-58
2022/08/08 03:55:13;;;;;;;9.45;8.52;;;;;;;10.30;100.00;163258.41;5028934;28;20127;-58
2022/08/08 03:57:53;;;;;;;12.00;10.80;;;;;;;10.22;100.00;163235.47;5031902;28;20129;-58
2022/08/08 04:00:22;;;;;;;22.90;14.75;;;;;;;10.20;100.00;163230.06;5010821;28;20129;-60
2022/08/08 04:02:55;;;;;;;;;;;;;;;10.10;100.00;163205.78;5019169;28;20022;-58
2022/08/08 04:05:20;;;;;;;12.30;11.02;;;;;;;10.05;100.00;163192.28;5029898;28;20372;-61
2022/08/08 04:07:46;;;;;;;11.27;5.50;;;;;;;10.02;100.00;163184.19;5032179;28;20060;-61
2022/08/08 04:10:11;;;;;;;9.77;7.93;;;;;;;9.99;100.00;163176.09;5020176;28;20042;-61
2022/08/08 04:12:36;;;;;;;21.58;11.27;;;;;;;9.98;100.00;163173.41;5031948;28;20021;-61
2022/08/08 04:15:03;;;;;;;16.83;13.93;;;;;;;9.98;100.00;163174.72;5020749;28;20034;-61
2022/08/08 04:17:29;;;;;;;13.77;12.10;;;;;;;9.95;100.00;163165.28;5012516;28;20401;-61
2022/08/08 04:19:55;;;;;;;16.98;14.18;;;;;;;9.96;100.00;163168.00;5010986;28;20034;-61
2022/08/08 04:22:21;;;;;;;16.70;14.57;;;;;;;10.02;100.00;163182.84;5011999;28;20026;-61
2022/08/08 04:24:46;;;;;;;19.35;17.30;;;;;;;10.04;100.00;163189.59;5010801;28;20030;-61
2022/08/08 04:27:12;;;;;;;16.00;14.40;;;;;;;10.11;100.00;163208.47;5021352;28;20042;-62
2022/08/08 04:29:37;;;;;;;25.90;18.55;;;;;;;10.19;100.00;163228.75;5029428;28;20099;-61
2022/08/08 04:32:05;;;;;;;19.95;16.65;;;;;;;10.32;100.00;162014.75;5032159;28;20060;-61
2022/08/08 04:34:30;;;;;;;24.90;20.90;;;;;;;10.50;100.00;155894.63;5030137;28;20576;-60
2022/08/08 04:36:55;;;;;;;25.52;22.90;;;;;;;10.72;100.00;147488.19;5014817;28;20030;-60
2022/08/08 04:39:21;;;;;;;22.02;19.73;;;;;;;10.87;100.00;139074.34;5010530;28;20416;-60
2022/08/08 04:41:46;;;;;;;30.27;21.42;;;;;;;10.99;100.00;132775.88;5012301;28;20101;-60
2022/08/08 04:44:11;;;;;;;30.52;22.67;;;;;;;11.03;100.00;128572.50;5010795;28;20036;-60
2022/08/08 04:46:37;;;;;;;23.80;20.45;;;;;;;11.14;100.00;126489.78;5011859;28;20033;-60
2022/08/08 04:49:02;;;;;;;25.35;21.90;;;;;;;11.21;100.00;125100.47;5011866;28;20021;-60
2022/08/08 04:51:27;;;;;;;24.63;19.95;;;;;;;11.29;100.00;124063.94;5009859;28;20401;-59
2022/08/08 04:53:53;;;;;;;31.45;23.50;;;;;;;11.35;100.00;123725.53;5011772;28;20034;-59
2022/08/08 04:56:18;;;;;;;23.63;20.15;;;;;;;11.40;100.00;123736.66;5010090;28;20042;-60
2022/08/08 04:58:44;;;;;;;33.10;21.10;;;;;;;11.43;100.00;124444.06;5015388;28;20055;-60
2022/08/08 05:01:09;;;;;;;20.85;18.58;;;;;;;11.52;100.00;124811.13;5029625;28;20133;-61
2022/08/08 05:03:35;;;;;;;25.45;22.70;;;;;;;11.55;100.00;125519.94;5025885;28;20052;-61
2022/08/08 05:06:00;;;;;;;21.38;18.75;;;;;;;11.63;100.00;125886.28;5011028;28;20079;-60
2022/08/08 05:08:26;;;;;;;24.88;19.92;;;;;;;11.67;100.00;126596.50;5017427;28;20037;-61
2022/08/08 05:10:52;;;;;;;23.48;20.90;;;;;;;11.71;100.00;127658.06;5029811;28;20041;-61
2022/08/08 05:13:17;;;;;;;23.52;19.13;;;;;;;11.74;100.00;128717.91;5025600;28;20029;-60
2022/08/08 05:15:43;;;;;;;22.42;19.13;;;;;;;11.78;100.00;129778.16;5014977;28;20048;-61
2022/08/08 05:18:08;;;;;;;22.48;19.38;;;;;;;11.81;100.00;130487.31;5019140;28;20136;-60
2022/08/08 05:20:33;;;;;;;22.80;19.42;;;;;;;11.88;100.00;131205.28;5018111;28;20037;-61
2022/08/08 05:22:59;;;;;;;22.33;19.88;;;;;;;11.96;100.00;130870.94;5021560;28;20017;-61
2022/08/08 05:25:24;;;;;;;28.15;19.02;;;;;;;12.06;100.00;129836.69;5019154;28;20037;-60
2022/08/08 05:27:50;;;;;;;21.20;17.45;;;;;;;12.17;100.00;128454.00;5020131;28;20045;-60
2022/08/08 05:30:15;;;;;;;24.80;19.67;;;;;;;12.34;100.00;128136.13;5017998;28;20034;-61
2022/08/08 05:32:41;;;;;;;20.25;17.77;;;;;;;12.45;100.00;129565.75;5018254;28;20032;-61
2022/08/08 05:35:07;;;;;;;23.67;20.85;;;;;;;12.58;100.00;133111.63;5022848;28;20045;-61
2022/08/08 05:37:38;;;;;;;21.50;17.13;;;;;;;12.66;100.00;139825.00;5028733;28;20159;-61
2022/08/08 05:40:04;;;;;;;27.10;18.67;;;;;;;12.77;100.00;145142.81;5028021;28;20047;-61
2022/08/08 05:42:40;;;;;;;28.95;17.50;;;;;;;12.88;100.00;151179.16;5024615;28;20028;-61
2022/08/08 05:45:07;;;;;;;19.90;16.05;;;;;;;13.00;100.00;154749.16;5028383;28;20445;-61
2022/08/08 05:47:34;;;;;;;21.75;16.70;;;;;;;13.10;100.00;160454.56;5012799;28;20500;-61
2022/08/08 05:50:03;;;;;;;17.80;15.57;;;;;;;13.22;100.00;164021.69;5027146;28;20037;-61
2022/08/08 05:52:28;;;;;;;17.88;14.85;;;;;;;13.32;100.00;164048.75;5019712;28;20105;-62
2022/08/08 05:54:53;;;;;;;31.42;18.23;;;;;;;13.41;100.00;164070.44;5009741;28;20092;-61
2022/08/08 05:57:24;;;;;;;17.42;15.73;;;;;;;13.49;100.00;164092.06;5011535;28;20044;-61
2022/08/08 05:59:50;;;;;;;16.75;14.93;;;;;;;13.60;100.00;164121.78;5018785;28;20038;-60
2022/08/08 06:05:09;;;;;;;16.63;13.80;;;;;;;13.85;100.00;164186.72;5014402;28;20181;-60
2022/08/08 06:07:41;;;;;;;18.75;14.63;;;;;;;13.98;100.00;164220.56;5011089;28;20041;-59
2022/08/08 06:10:10;;;;;;;17.10;12.98;;;;;;;14.08;100.00;164246.25;5008770;28;20117;-59
2022/08/08 06:12:36;;;;;;;12.95;11.70;;;;;;;14.19;100.00;164275.97;5013396;28;20356;-60
2022/08/08 06:15:07;;;;;;;15.18;11.27;;;;;;;14.35;100.00;164317.94;5021836;28;20121;-60
2022/08/08 06:17:33;;;;;;;15.00;12.23;;;;;;;14.47;100.00;164349.06;5013694;28;20034;-61
2022/08/08 06:20:02;;;;;;;14.30;11.73;;;;;;;14.60;100.00;164384.25;5026737;28;20045;-59
2022/08/08 06:22:27;;;;;;;11.85;10.65;;;;;;;14.69;100.00;164405.94;5034124;28;20104;-60
2022/08/08 06:24:53;;;;;;;16.08;10.90;;;;;;;14.81;100.00;164438.41;5022085;28;20417;-60
2022/08/08 06:27:32;;;;;;;13.80;10.73;;;;;;;15.01;100.00;164489.81;5029784;28;20042;-59
2022/08/08 06:30:08;;;;;;;11.35;9.40;;;;;;;15.19;100.00;164538.56;5021859;28;20124;-63
2022/08/08 06:32:50;;;;;;;15.50;9.80;;;;;;;15.31;100.00;164568.31;5033906;28;20033;-64
2022/08/08 06:35:16;;;;;;;17.40;10.52;;;;;;;15.42;100.00;164598.13;5031939;28;20041;-64
2022/08/08 06:37:55;;;;;;;11.63;9.00;;;;;;;15.53;100.00;164627.88;5033999;28;20480;-64
2022/08/08 06:40:23;;;;;;;9.65;7.22;;;;;;;15.67;100.00;164664.47;5032531;28;20076;-64
2022/08/08 06:42:56;;;;;;;18.52;8.38;;;;;;;15.82;100.00;164702.38;5021218;28;20061;-64
2022/08/08 06:45:22;;;;;;;11.95;7.93;;;;;;;15.98;100.00;164744.38;5016741;28;20447;-64
2022/08/08 06:47:48;;;;;;;7.80;7.10;;;;;;;16.14;100.00;164786.38;5028782;28;20018;-64
2022/08/08 06:50:14;;;;;;;7.15;6.45;;;;;;;16.28;100.00;164822.91;5016741;28;20052;-64
2022/08/08 06:52:40;;;;;;;13.50;8.60;;;;;;;16.41;100.00;164858.19;5031964;28;20025;-64
2022/08/08 06:55:06;;;;;;;11.18;6.60;;;;;;;16.53;100.00;164889.28;5030220;28;20176;-64
2022/08/08 06:57:32;;;;;;;8.18;6.55;;;;;;;16.74;100.00;164944.84;5013290;28;20112;-64
2022/08/08 06:59:58;;;;;;;9.93;6.60;;;;;;;17.09;100.00;165037.00;5012608;28;20030;-64
2022/08/08 07:02:26;;;;;;;7.32;6.13;;;;;;;17.77;100.00;165215.91;5012331;28;20034;-64
2022/08/08 07:05:12;;;;;;;;;;;;;;;18.43;100.00;165386.81;5012589;28;20401;-64
2022/08/08 07:08:11;;;;;;;6.35;3.72;;;;;;;19.08;100.00;165559.09;5013599;28;19954;-64
2022/08/08 07:10:40;;;;;;;7.20;3.67;;;;;;;19.26;100.00;165606.56;5006477;28;20132;-64
2022/08/08 07:13:09;;;;;;;7.45;3.17;;;;;;;19.26;100.00;165605.22;5033399;28;20021;-64
2022/08/08 07:15:42;;;;;;;;;;;;;;;19.32;100.00;165622.84;5032128;28;20548;-64
2022/08/08 07:18:08;;;;;;;6.35;2.67;;;;;;;19.25;100.00;165603.84;5033294;28;19913;-64
2022/08/08 07:20:37;;;;;;;7.38;3.00;;;;;;;19.46;100.00;165658.16;5031700;28;20534;-64
2022/08/08 07:23:10;;;;;;;5.70;3.75;;;;;;;-146.58;100.00;69501.63;5032329;28;20018;-61
2022/08/08 07:25:41;;;;;;;5.57;3.70;;;;;;;-146.58;100.00;69501.63;5011463;28;20046;-60
2022/08/08 07:28:18;;;;;;;7.60;3.53;;;;;;;-146.58;100.00;69501.63;5014162;28;20401;-60
2022/08/08 07:30:45;;;;;;;2.67;2.28;;;;;;;-146.58;100.00;69501.63;5020602;28;20064;-60
2022/08/08 07:33:11;;;;;;;4.30;2.05;;;;;;;-146.58;100.00;69501.63;5031263;28;20033;-60
2022/08/08 07:35:38;;;;;;;4.78;2.00;;;;;;;-146.58;100.00;69501.63;5022941;28;20061;-60
2022/08/08 07:38:04;;;;;;;5.53;2.58;;;;;;;-146.58;100.00;69501.63;5020288;28;20040;-61
2022/08/08 07:40:31;;;;;;;13.77;3.30;;;;;;;-146.58;100.00;69501.63;5030804;28;20756;-60
2022/08/08 07:42:57;;;;;;;7.82;1.85;;;;;;;-146.58;100.00;69501.63;5033217;28;20060;-60
2022/08/08 07:45:23;;;;;;;11.82;2.38;;;;;;;-146.58;100.00;69501.63;5030987;28;20046;-61
2022/08/08 07:47:49;;;;;;;3.65;2.00;;;;;;;-146.58;100.00;69501.63;5032345;28;20021;-60
2022/08/08 07:50:15;;;;;;;5.45;2.65;;;;;;;-146.58;100.00;69501.63;5031375;28;20042;-60
2022/08/08 07:52:51;;;;;;;6.55;2.38;;;;;;;-146.58;100.00;69501.63;5031901;28;20477;-60
2022/08/08 07:55:25;;;;;;;5.10;2.60;;;;;;;-146.58;100.00;69501.63;5030128;28;20041;-60
2022/08/08 07:58:15;;;;;;;3.95;1.92;;;;;;;-146.58;100.00;69501.63;5032887;28;20028;-60
2022/08/08 08:00:50;;;;;;;3.78;1.92;;;;;;;-146.58;100.00;69501.63;5031147;28;20114;-60
2022/08/08 08:03:31;;;;;;;5.13;2.70;;;;;;;-146.58;100.00;69501.63;5031979;28;20100;-60
2022/08/08 08:05:58;;;;;;;6.38;2.20;;;;;;;-146.58;100.00;69501.63;5031021;28;20041;-60
2022/08/08 08:08:28;;;;;;;10.55;2.85;;;;;;;-146.58;100.00;69501.63;5031759;28;20025;-63
2022/08/08 08:10:55;;;;;;;5.78;1.63;;;;;;;-146.58;100.00;69501.63;5030587;28;20053;-59
2022/08/08 08:13:33;;;;;;;4.75;1.88;;;;;;;-146.58;100.00;69501.63;5031827;28;20084;-59
2022/08/08 08:16:12;;;;;;;7.28;2.58;;;;;;;-146.58;100.00;69501.63;5030459;28;20493;-59
2022/08/08 08:18:43;;;;;;;2.92;2.00;;;;;;;-146.58;100.00;69501.63;5030223;28;20055;-60
2022/08/08 08:21:09;;;;;;;8.85;1.95;;;;;;;-146.58;100.00;69501.63;5013568;28;20065;-60
2022/08/08 08:23:35;;;;;;;12.07;2.20;;;;;;;-146.58;100.00;69501.63;5011910;28;20095;-60
2022/08/08 08:26:00;;;;;;;8.90;2.78;;;;;;;-146.58;100.00;69501.63;5011237;28;20052;-60
2022/08/08 08:28:26;;;;;;;4.78;2.45;;;;;;;-146.58;100.00;69501.63;5011732;28;20468;-60
2022/08/08 08:30:52;;;;;;;4.80;2.03;;;;;;;-146.58;100.00;69501.63;5011730;28;20045;-60
2022/08/08 08:33:18;;;;;;;2.80;1.42;;;;;;;-146.58;100.00;69501.63;5011508;28;20036;-60
2022/08/08 08:35:43;;;;;;;3.50;1.65;;;;;;;-146.58;100.00;69501.63;5010573;28;20103;-60
2022/08/08 08:38:09;;;;;;;7.32;2.00;;;;;;;-146.58;100.00;69501.63;5020970;28;20049;-60
2022/08/08 08:40:34;;;;;;;7.32;3.05;;;;;;;-146.58;100.00;69501.63;5014888;28;20038;-60
2022/08/08 08:43:01;;;;;;;7.07;2.85;;;;;;;-146.58;100.00;69501.63;5011659;28;20159;-60
2022/08/08 08:45:27;;;;;;;4.00;2.28;;;;;;;-146.58;100.00;69501.63;5010435;28;20042;-60
2022/08/08 08:47:53;;;;;;;9.93;2.17;;;;;;;-146.58;100.00;69501.63;5017197;28;20071;-60
2022/08/08 08:50:19;;;;;;;4.32;2.30;;;;;;;-146.58;100.00;69501.63;5029485;28;20072;-60
2022/08/08 08:52:45;;;;;;;3.55;2.33;;;;;;;-146.58;100.00;69501.63;5030486;28;20108;-60
2022/08/08 08:55:14;;;;;;;14.90;3.20;;;;;;;-146.58;100.00;69501.63;5029483;28;20034;-60
2022/08/08 08:57:42;;;;;;;3.67;2.22;;;;;;;-146.58;100.00;69501.63;5028563;28;20144;-60
2022/08/08 09:00:09;;;;;;;;;;;;;;;-146.58;100.00;69501.63;5017540;28;20034;-60
2022/08/08 09:02:36;;;;;;;6.68;2.83;;;;;;;-146.58;100.00;69501.63;5021410;28;19917;-60
2022/08/08 09:05:04;;;;;;;5.60;2.33;;;;;;;-146.58;100.00;69501.63;5027439;28;20045;-60
2022/08/08 09:07:33;;;;;;;4.22;2.22;;;;;;;-146.58;100.00;69501.63;5011469;28;20440;-60
2022/08/08 09:09:59;;;;;;;4.03;2.72;;;;;;;-146.58;100.00;69501.63;5009606;28;20066;-60
2022/08/08 09:12:26;;;;;;;9.45;2.42;;;;;;;-146.58;100.00;69501.63;5011336;28;20033;-60
2022/08/08 09:14:56;;;;;;;2.72;1.73;;;;;;;-146.58;100.00;69501.63;5011932;28;20096;-60
2022/08/08 09:17:25;;;;;;;3.80;1.92;;;;;;;-146.58;100.00;69501.63;5018482;28;20504;-60
2022/08/08 09:19:56;;;;;;;6.93;2.90;;;;;;;-146.58;100.00;69501.63;5029813;28;20060;-60
2022/08/08 09:22:22;;;;;;;6.93;2.90;;;;;;;-146.58;100.00;69501.63;5028278;28;20037;-60
2022/08/08 09:24:49;;;;;;;4.65;1.88;;;;;;;22.12;100.00;166358.84;5029263;28;20061;-60
2022/08/08 09:27:17;;;;;;;5.17;2.07;;;;;;;22.13;100.00;166361.59;5030734;28;20053;-60
2022/08/08 09:29:51;;;;;;;3.28;2.40;;;;;;;21.49;100.00;166193.06;5029833;28;20038;-60
2022/08/08 09:32:34;;;;;;;3.47;1.48;;;;;;;21.37;100.00;166160.47;5030640;28;20411;-60
2022/08/08 09:35:01;;;;;;;9.18;3.30;;;;;;;21.28;100.00;166136.03;5020680;28;20052;-60
2022/08/08 09:37:29;;;;;;;5.50;1.88;;;;;;;21.33;100.00;166149.63;5010995;28;20030;-60
2022/08/08 09:40:06;;;;;;;2.60;1.50;;;;;;;21.93;100.00;166308.59;5010640;28;20096;-60
2022/08/08 09:42:41;;;;;;;5.25;1.50;;;;;;;22.58;100.00;166479.81;5010999;28;20395;-60
2022/08/08 09:45:15;;;;;;;3.33;2.28;;;;;;;23.00;100.00;166588.56;5014610;28;20042;-61
2022/08/08 09:47:42;;;;;;;4.20;2.22;;;;;;;23.14;100.00;166627.97;5011380;28;20072;-60
2022/08/08 09:50:13;;;;;;;3.00;2.00;;;;;;;23.18;100.00;166636.19;5012720;28;20030;-60
2022/08/08 09:52:42;;;;;;;4.82;2.08;;;;;;;23.55;100.00;166734.06;5034678;28;20021;-61
2022/08/08 09:55:08;;;;;;;3.75;1.90;;;;;;;23.93;100.00;166834.75;5032644;28;20045;-61
2022/08/08 09:57:36;;;;;;;3.97;1.77;;;;;;;23.30;100.00;166668.81;5034500;28;20032;-60
2022/08/08 10:00:08;;;;;;;2.38;1.23;;;;;;;23.61;100.00;166751.72;5032546;28;20409;-60
2022/08/08 10:02:36;;;;;;;3.42;1.15;;;;;;;24.04;100.00;166863.31;5034176;28;20104;-60
2022/08/08 10:05:04;;;;;;;3.42;1.65;;;;;;;23.56;100.00;166736.81;5027850;28;20092;-60
2022/08/08 10:07:29;;;;;;;4.60;2.17;;;;;;;23.66;100.00;166763.97;5024911;28;20025;-60
2022/08/08 10:09:55;;;;;;;4.32;1.10;;;;;;;23.94;100.00;166837.44;5021926;28;20456;-60
2022/08/08 10:12:30;;;;;;;3.95;1.15;;;;;;;24.16;100.00;166895.94;5032581;28;20025;-60
2022/08/08 10:14:59;;;;;;;3.30;1.63;;;;;;;24.36;100.00;166947.59;5032744;28;20488;-60
2022/08/08 10:17:25;;;;;;;6.50;2.55;;;;;;;24.58;100.00;167004.72;5031917;28;20558;-60
2022/08/08 10:19:55;;;;;;;2.47;1.90;;;;;;;24.16;100.00;166894.59;5013184;28;20050;-60
2022/08/08 10:22:22;;;;;;;9.43;1.45;;;;;;;23.46;100.00;166710.94;5023918;28;20052;-60
2022/08/08 10:24:53;;;;;;;5.38;1.58;;;;;;;23.02;100.00;166595.38;5032484;28;20560;-60
2022/08/08 10:27:27;;;;;;;3.90;1.33;;;;;;;23.07;100.00;166608.94;5032843;28;20061;-61
2022/08/08 10:30:00;;;;;;;2.42;1.60;;;;;;;23.55;100.00;166734.06;5032903;28;20034;-60
2022/08/08 10:32:36;;;;;;;3.20;1.70;;;;;;;23.53;100.00;166728.63;5033532;28;20481;-60
2022/08/08 10:35:05;;;;;;;2.85;1.15;;;;;;;23.27;100.00;166660.69;5032718;28;20068;-60
2022/08/08 10:37:32;;;;;;;3.88;1.30;;;;;;;23.73;100.00;166781.66;5033798;28;20052;-60
2022/08/08 10:40:00;;;;;;;4.15;1.33;;;;;;;24.19;100.00;166904.13;5020838;28;20046;-60
2022/08/08 10:42:34;;;;;;;4.90;1.67;;;;;;;24.70;100.00;167038.78;5014208;28;20036;-60
2022/08/08 10:45:05;;;;;;;2.42;1.50;;;;;;;24.80;100.00;167064.63;5016426;28;20121;-60
2022/08/08 10:47:31;;;;;;;3.40;1.13;;;;;;;24.76;99.79;167053.75;5013190;28;20457;-61
2022/08/08 10:50:01;;;;;;;2.55;1.77;;;;;;;24.91;100.00;167091.84;5027127;28;20040;-61
2022/08/08 10:52:31;;;;;;;1.83;1.10;;;;;;;24.32;100.00;166938.06;5025736;28;20030;-60
2022/08/08 10:55:03;;;;;;;3.33;1.10;;;;;;;23.33;100.00;166676.97;5012647;28;20037;-61
2022/08/08 10:57:30;;;;;;;4.57;1.58;;;;;;;22.66;100.00;166501.56;5013763;28;20080;-61
2022/08/08 10:59:57;;;;;;;3.03;1.23;;;;;;;22.62;100.00;166489.34;5012179;28;20046;-60
2022/08/08 11:02:33;;;;;;;2.45;1.80;;;;;;;22.84;100.00;166546.41;5012751;28;20087;-60
2022/08/08 11:05:00;;;;;;;6.63;1.50;;;;;;;23.02;100.00;166595.38;5014322;28;20124;-61
2022/08/08 11:07:31;;;;;;;2.13;0.93;;;;;;;23.29;100.00;166666.09;5026064;28;20025;-60
2022/08/08 11:10:16;;;;;;;4.32;1.13;;;;;;;23.02;100.00;166595.38;5022491;28;20052;-60
2022/08/08 11:12:46;;;;;;;2.33;1.00;;;;;;;23.21;100.00;166644.31;5029710;28;20038;-61
2022/08/08 11:15:14;;;;;;;1.30;1.02;;;;;;;23.79;100.00;166796.63;5031340;28;20041;-60
2022/08/08 11:17:40;;;;;;;2.90;1.00;;;;;;;24.66;100.00;167027.94;5031286;28;20037;-60
2022/08/08 11:20:08;;;;;;;3.15;1.08;;;;;;;24.66;100.00;167027.94;5027612;28;20053;-61
2022/08/08 11:22:33;;;;;;;4.38;1.25;;;;;;;-146.58;100.00;69501.63;5012691;28;20045;-60
2022/08/08 11:25:01;;;;;;;2.63;1.25;;;;;;;-146.58;100.00;69501.63;5012062;28;20034;-61
2022/08/08 11:27:32;;;;;;;1.98;1.15;;;;;;;-146.58;100.00;69501.63;5013147;28;20050;-61
2022/08/08 11:29:59;;;;;;;2.63;1.17;;;;;;;-146.58;100.00;69501.63;5011679;28;20069;-60
2022/08/08 11:32:26;;;;;;;4.22;1.23;;;;;;;-146.58;100.00;69501.63;5024201;28;20029;-61
2022/08/08 11:35:11;;;;;;;2.90;1.15;;;;;;;-146.58;100.00;69501.63;5031576;28;20072;-60
2022/08/08 11:37:41;;;;;;;4.18;1.45;;;;;;;22.81;100.00;166541.00;5032413;28;20036;-61
2022/08/08 11:40:09;;;;;;;4.35;2.33;;;;;;;22.69;100.00;166508.34;5029898;28;20119;-60
2022/08/08 11:42:35;;;;;;;7.80;1.67;;;;;;;22.46;100.00;166448.56;5032778;28;20033;-60
2022/08/08 11:45:02;;;;;;;1.92;0.90;;;;;;;-146.58;100.00;69501.63;5031260;28;20068;-60